createdAt,value
2022-10-14T00:00:35.489Z,0.00
2022-10-14T00:01:35.556Z,0.00
2022-10-14T00:02:35.492Z,0.00
2022-10-14T00:03:35.528Z,0.00
2022-10-14T00:04:35.551Z,0.00
2022-10-14T00:05:35.572Z,0.00
2022-10-14T00:06:35.541Z,0.00
2022-10-14T00:07:35.559Z,0.00
2022-10-14T00:08:35.589Z,0.00
2022-10-14T00:09:35.600Z,0.00
2022-10-14T00:10:35.620Z,0.00
2022-10-14T00:11:35.624Z,0.00
2022-10-14T00:12:35.621Z,0.00
2022-10-14T00:13:35.646Z,0.00
2022-10-14T00:14:35.661Z,0.00
2022-10-14T00:15:35.669Z,0.00
2022-10-14T00:16:35.679Z,0.00
2022-10-14T00:17:35.677Z,0.00
2022-10-14T00:18:35.763Z,0.00
2022-10-14T00:19:35.721Z,0.00
2022-10-14T00:20:35.737Z,0.00
2022-10-14T00:21:35.762Z,0.00
2022-10-14T00:22:35.758Z,0.00
2022-10-14T00:23:35.767Z,0.00
2022-10-14T00:24:35.793Z,0.00
2022-10-14T00:25:35.817Z,0.00
2022-10-14T00:26:35.838Z,0.00
2022-10-14T00:27:35.820Z,0.00
2022-10-14T00:28:35.921Z,0.00
2022-10-14T00:29:35.832Z,0.00
2022-10-14T00:30:35.842Z,0.00
2022-10-14T00:31:35.860Z,0.00
2022-10-14T00:32:35.860Z,0.00
2022-10-14T00:33:35.892Z,0.00
2022-10-14T00:34:35.905Z,0.00
2022-10-14T00:35:35.928Z,0.00
2022-10-14T00:36:35.912Z,0.00
2022-10-14T00:37:35.937Z,0.00
2022-10-14T00:38:35.951Z,0.00
2022-10-14T00:39:35.944Z,0.00
2022-10-14T00:40:35.960Z,0.00
2022-10-14T00:41:36.001Z,0.00
2022-10-14T00:42:36.110Z,0.00
2022-10-14T00:43:35.997Z,0.00
2022-10-14T00:44:36.008Z,0.00
2022-10-14T00:45:36.045Z,0.00
2022-10-14T00:46:36.040Z,0.00
2022-10-14T00:47:36.053Z,0.00
2022-10-14T00:48:36.073Z,0.00
2022-10-14T00:49:36.081Z,0.00
2022-10-14T00:50:36.104Z,0.00
2022-10-14T00:51:36.112Z,0.00
2022-10-14T00:52:36.145Z,0.00
2022-10-14T00:53:36.129Z,0.00
2022-10-14T00:54:36.136Z,0.00
2022-10-14T00:55:36.165Z,0.00
2022-10-14T00:56:36.219Z,0.00
2022-10-14T00:57:36.169Z,0.00
2022-10-14T00:59:36.209Z,0.00
2022-10-14T01:00:36.242Z,0.00
2022-10-14T01:01:36.200Z,0.00
2022-10-14T01:02:36.189Z,0.00
2022-10-14T01:03:36.198Z,0.00
2022-10-14T01:04:36.193Z,0.00
2022-10-14T01:05:36.216Z,0.00
2022-10-14T01:06:36.220Z,0.00
2022-10-14T01:07:36.185Z,0.00
2022-10-14T01:08:36.197Z,0.00
2022-10-14T01:09:36.222Z,0.00
2022-10-14T01:10:36.225Z,0.00
2022-10-14T01:11:36.187Z,0.00
2022-10-14T01:12:36.249Z,0.00
2022-10-14T01:13:36.195Z,0.00
2022-10-14T01:14:36.274Z,0.00
2022-10-14T01:15:36.223Z,0.00
2022-10-14T01:16:36.203Z,0.00
2022-10-14T01:17:36.214Z,0.00
2022-10-14T01:18:36.230Z,0.00
2022-10-14T01:19:36.218Z,0.00
2022-10-14T01:20:36.220Z,0.00
2022-10-14T01:21:36.215Z,0.00
2022-10-14T01:22:36.222Z,0.00
2022-10-14T01:23:36.238Z,0.00
2022-10-14T01:24:36.217Z,0.00
2022-10-14T01:25:36.242Z,0.00
2022-10-14T01:26:36.247Z,0.00
2022-10-14T01:27:36.262Z,0.00
2022-10-14T01:28:36.299Z,0.00
2022-10-14T01:29:36.214Z,0.00
2022-10-14T01:30:36.225Z,0.00
2022-10-14T01:31:36.250Z,0.00
2022-10-14T01:32:36.241Z,0.00
2022-10-14T01:33:36.213Z,0.00
2022-10-14T01:34:36.212Z,0.00
2022-10-14T01:35:36.234Z,0.00
2022-10-14T01:36:36.245Z,0.00
2022-10-14T01:37:36.217Z,0.00
2022-10-14T01:38:36.234Z,0.00
2022-10-14T01:39:36.242Z,0.00
2022-10-14T01:40:36.254Z,0.00
2022-10-14T01:41:36.237Z,0.00
2022-10-14T01:42:36.257Z,0.00
2022-10-14T01:43:36.238Z,0.00
2022-10-14T01:44:36.246Z,0.00
2022-10-14T01:45:36.233Z,0.00
2022-10-14T01:46:36.250Z,0.00
2022-10-14T01:47:36.257Z,0.00
2022-10-14T01:48:36.229Z,0.00
2022-10-14T01:49:36.231Z,0.00
2022-10-14T01:50:36.231Z,0.00
2022-10-14T01:51:36.261Z,0.00
2022-10-14T01:52:36.245Z,0.00
2022-10-14T01:53:36.264Z,0.00
2022-10-14T01:54:36.269Z,0.00
2022-10-14T01:55:36.234Z,0.00
2022-10-14T01:56:40.412Z,0.00
2022-10-14T01:57:36.246Z,0.00
2022-10-14T01:58:36.266Z,0.00
2022-10-14T01:59:36.283Z,0.00
2022-10-14T02:00:36.273Z,0.00
2022-10-14T02:01:36.338Z,0.00
2022-10-14T02:02:36.274Z,0.00
2022-10-14T02:03:36.282Z,0.00
2022-10-14T02:04:36.241Z,0.00
2022-10-14T02:05:36.256Z,0.00
2022-10-14T02:06:36.305Z,0.00
2022-10-14T02:07:36.282Z,0.00
2022-10-14T02:08:36.242Z,0.00
2022-10-14T02:09:36.246Z,0.00
2022-10-14T02:10:36.265Z,0.00
2022-10-14T02:11:36.285Z,0.00
2022-10-14T02:12:36.294Z,0.00
2022-10-14T02:13:36.254Z,0.00
2022-10-14T02:14:36.275Z,0.00
2022-10-14T02:15:36.274Z,0.00
2022-10-14T02:16:36.273Z,0.00
2022-10-14T02:17:36.286Z,0.00
2022-10-14T02:18:36.286Z,0.00
2022-10-14T02:19:36.283Z,0.00
2022-10-14T02:20:36.286Z,0.00
2022-10-14T02:21:36.282Z,0.00
2022-10-14T02:22:36.301Z,0.00
2022-10-14T02:23:36.298Z,0.00
2022-10-14T02:24:36.266Z,0.00
2022-10-14T02:25:36.286Z,0.00
2022-10-14T02:26:36.278Z,0.00
2022-10-14T02:27:36.281Z,0.00
2022-10-14T02:28:36.350Z,0.00
2022-10-14T02:29:36.285Z,0.00
2022-10-14T02:30:36.283Z,0.02
2022-10-14T02:31:36.302Z,0.00
2022-10-14T02:32:36.279Z,0.00
2022-10-14T02:33:36.390Z,0.00
2022-10-14T02:34:36.339Z,0.00
2022-10-14T02:35:36.314Z,0.00
2022-10-14T02:36:36.302Z,0.00
2022-10-14T02:37:36.298Z,0.00
2022-10-14T02:38:36.281Z,0.00
2022-10-14T02:39:36.313Z,0.00
2022-10-14T02:40:36.306Z,0.00
2022-10-14T02:41:36.314Z,0.00
2022-10-14T02:42:36.317Z,0.00
2022-10-14T02:43:36.298Z,0.00
2022-10-14T02:44:36.327Z,0.00
2022-10-14T02:45:36.306Z,0.00
2022-10-14T02:46:36.314Z,0.00
2022-10-14T02:47:36.297Z,0.00
2022-10-14T02:48:36.355Z,0.00
2022-10-14T02:49:36.327Z,0.00
2022-10-14T02:50:36.337Z,0.00
2022-10-14T02:51:36.306Z,0.00
2022-10-14T02:52:36.366Z,0.00
2022-10-14T02:53:36.322Z,0.00
2022-10-14T02:54:36.338Z,0.00
2022-10-14T02:55:36.306Z,0.00
2022-10-14T02:56:36.363Z,0.00
2022-10-14T02:57:36.318Z,0.00
2022-10-14T02:58:36.330Z,0.00
2022-10-14T02:59:36.342Z,0.00
2022-10-14T03:00:36.352Z,0.00
2022-10-14T03:01:37.767Z,0.00
2022-10-14T03:02:36.402Z,0.00
2022-10-14T03:03:36.363Z,0.00
2022-10-14T03:04:36.334Z,0.00
2022-10-14T03:05:36.331Z,0.00
2022-10-14T03:06:36.344Z,0.00
2022-10-14T03:07:36.334Z,0.00
2022-10-14T03:08:36.358Z,0.00
2022-10-14T03:09:36.345Z,0.00
2022-10-14T03:10:36.339Z,0.00
2022-10-14T03:11:36.351Z,0.00
2022-10-14T03:12:36.338Z,0.00
2022-10-14T03:13:36.341Z,0.00
2022-10-14T03:14:36.358Z,0.00
2022-10-14T03:15:36.328Z,0.00
2022-10-14T03:16:36.323Z,0.00
2022-10-14T03:17:36.350Z,0.00
2022-10-14T03:18:36.358Z,0.00
2022-10-14T03:19:36.360Z,0.00
2022-10-14T03:20:36.374Z,0.00
2022-10-14T03:21:36.361Z,0.00
2022-10-14T03:22:36.350Z,0.00
2022-10-14T03:23:36.342Z,0.00
2022-10-14T03:24:36.338Z,0.00
2022-10-14T03:25:36.410Z,0.00
2022-10-14T03:26:36.355Z,0.00
2022-10-14T03:27:36.423Z,0.00
2022-10-14T03:28:36.457Z,0.00
2022-10-14T03:29:36.350Z,0.00
2022-10-14T03:30:36.354Z,0.00
2022-10-14T03:31:36.403Z,0.00
2022-10-14T03:32:36.362Z,0.00
2022-10-14T03:33:36.379Z,0.00
2022-10-14T03:34:36.362Z,0.00
2022-10-14T03:35:36.374Z,0.00
2022-10-14T03:36:36.371Z,0.00
2022-10-14T03:37:36.375Z,0.00
2022-10-14T03:38:36.357Z,0.00
2022-10-14T03:39:36.374Z,0.00
2022-10-14T03:40:36.371Z,0.00
2022-10-14T03:41:36.398Z,0.00
2022-10-14T03:42:36.389Z,0.00
2022-10-14T03:43:36.378Z,0.00
2022-10-14T03:44:36.375Z,0.00
2022-10-14T03:45:36.386Z,0.00
2022-10-14T03:46:36.399Z,0.00
2022-10-14T03:47:36.382Z,0.00
2022-10-14T03:48:36.379Z,0.00
2022-10-14T03:49:36.363Z,0.00
2022-10-14T03:50:36.382Z,0.00
2022-10-14T03:51:36.382Z,0.00
2022-10-14T03:52:36.367Z,0.00
2022-10-14T03:53:36.396Z,0.00
2022-10-14T03:54:36.383Z,0.10
2022-10-14T03:55:36.438Z,0.17
2022-10-14T03:56:36.439Z,0.00
2022-10-14T03:57:36.406Z,0.02
2022-10-14T03:58:36.403Z,0.02
2022-10-14T03:59:36.394Z,0.33
2022-10-14T04:00:36.406Z,0.31
2022-10-14T04:01:36.448Z,0.29
2022-10-14T04:02:36.415Z,0.33
2022-10-14T04:03:36.379Z,0.39
2022-10-14T04:04:36.391Z,0.20
2022-10-14T04:05:36.386Z,0.18
2022-10-14T04:06:36.407Z,0.43
2022-10-14T04:07:36.430Z,0.11
2022-10-14T04:08:36.398Z,0.06
2022-10-14T04:09:36.418Z,0.43
2022-10-14T04:10:36.451Z,0.03
2022-10-14T04:11:36.474Z,0.02
2022-10-14T04:12:36.458Z,0.02
2022-10-14T04:13:36.478Z,0.00
2022-10-14T04:14:36.523Z,0.75
2022-10-14T04:15:36.492Z,0.11
2022-10-14T04:16:36.556Z,0.15
2022-10-14T04:17:36.523Z,0.18
2022-10-14T04:18:36.547Z,0.42
2022-10-14T04:19:36.570Z,0.00
2022-10-14T04:20:36.583Z,0.16
2022-10-14T04:21:36.592Z,0.29
2022-10-14T04:22:36.599Z,0.00
2022-10-14T04:23:36.619Z,0.00
2022-10-14T04:24:36.626Z,0.00
2022-10-14T04:25:36.644Z,0.00
2022-10-14T04:26:36.642Z,0.00
2022-10-14T04:27:36.670Z,0.00
2022-10-14T04:28:36.715Z,0.00
2022-10-14T04:29:36.679Z,0.00
2022-10-14T04:30:36.674Z,0.00
2022-10-14T04:31:36.707Z,0.00
2022-10-14T04:32:36.710Z,0.00
2022-10-14T04:33:36.728Z,0.00
2022-10-14T04:34:36.719Z,0.00
2022-10-14T04:35:36.759Z,0.00
2022-10-14T04:36:36.787Z,0.00
2022-10-14T04:37:36.777Z,0.00
2022-10-14T04:38:36.788Z,0.00
2022-10-14T04:39:36.778Z,0.00
2022-10-14T04:40:36.815Z,0.00
2022-10-14T04:41:36.813Z,0.00
2022-10-14T04:42:36.851Z,0.00
2022-10-14T04:43:36.864Z,0.17
2022-10-14T04:44:36.863Z,0.53
2022-10-14T04:45:36.883Z,0.10
2022-10-14T04:46:36.863Z,0.00
2022-10-14T04:47:36.908Z,0.00
2022-10-14T04:48:37.913Z,0.00
2022-10-14T04:49:41.515Z,0.02
2022-10-14T04:50:40.240Z,0.01
2022-10-14T04:51:39.429Z,0.00
2022-10-14T04:52:39.983Z,0.01
2022-10-14T04:53:39.347Z,0.00
2022-10-14T04:54:40.350Z,0.00
2022-10-14T04:55:39.880Z,0.00
2022-10-14T04:56:39.511Z,0.00
2022-10-14T04:57:39.364Z,0.00
2022-10-14T04:58:39.370Z,0.01
2022-10-14T04:59:39.358Z,0.11
2022-10-14T05:00:39.870Z,0.00
2022-10-14T05:01:39.739Z,0.00
2022-10-14T05:02:39.383Z,0.01
2022-10-14T05:03:39.381Z,0.00
2022-10-14T05:04:39.356Z,0.03
2022-10-14T05:05:39.346Z,0.32
2022-10-14T05:06:42.345Z,0.00
2022-10-14T05:07:39.388Z,0.00
2022-10-14T05:08:39.374Z,0.00
2022-10-14T05:09:39.543Z,0.00
2022-10-14T05:10:39.463Z,1.27
2022-10-14T05:11:39.403Z,0.85
2022-10-14T05:12:39.351Z,0.67
2022-10-14T05:13:39.411Z,2.19
2022-10-14T05:14:39.528Z,1.19
2022-10-14T05:15:39.506Z,0.19
2022-10-14T05:16:39.433Z,0.01
2022-10-14T05:17:39.517Z,0.06
2022-10-14T05:18:39.459Z,0.00
2022-10-14T05:19:39.455Z,0.00
2022-10-14T05:20:39.407Z,0.00
2022-10-14T05:21:39.495Z,0.00
2022-10-14T05:22:39.389Z,0.00
2022-10-14T05:23:39.556Z,0.00
2022-10-14T05:24:39.458Z,0.22
2022-10-14T05:25:39.541Z,0.37
2022-10-14T05:26:39.622Z,0.94
2022-10-14T05:27:39.528Z,0.53
2022-10-14T05:28:39.496Z,0.58
2022-10-14T05:29:39.388Z,0.34
2022-10-14T05:30:40.824Z,1.08
2022-10-14T05:31:39.539Z,0.59
2022-10-14T05:32:39.395Z,0.79
2022-10-14T05:33:40.455Z,0.03
2022-10-14T05:34:39.492Z,0.46
2022-10-14T05:35:58.217Z,0.60
2022-10-14T05:36:39.399Z,0.13
2022-10-14T05:37:39.464Z,0.20
2022-10-14T05:38:39.395Z,0.00
2022-10-14T05:39:39.383Z,0.00
2022-10-14T05:40:39.403Z,0.06
2022-10-14T05:41:39.396Z,0.38
2022-10-14T05:42:39.397Z,0.43
2022-10-14T05:43:39.371Z,0.93
2022-10-14T05:44:39.383Z,0.81
2022-10-14T05:45:39.393Z,0.52
2022-10-14T05:46:39.374Z,0.00
2022-10-14T05:47:39.392Z,0.00
2022-10-14T05:48:39.384Z,0.29
2022-10-14T05:49:39.396Z,0.50
2022-10-14T05:50:39.504Z,0.57
2022-10-14T05:51:39.391Z,0.77
2022-10-14T05:52:39.420Z,0.32
2022-10-14T05:53:41.229Z,0.17
2022-10-14T05:54:39.503Z,0.16
2022-10-14T05:55:39.564Z,0.00
2022-10-14T05:56:39.462Z,0.12
2022-10-14T05:57:39.573Z,0.78
2022-10-14T05:58:39.436Z,0.00
2022-10-14T05:59:39.523Z,0.08
2022-10-14T06:00:39.454Z,0.00
2022-10-14T06:01:39.628Z,0.16
2022-10-14T06:02:39.680Z,0.61
2022-10-14T06:03:39.473Z,0.03
2022-10-14T06:04:39.736Z,0.00
2022-10-14T06:05:39.552Z,0.00
2022-10-14T06:06:39.596Z,0.39
2022-10-14T06:07:39.600Z,0.05
2022-10-14T06:08:39.552Z,0.54
2022-10-14T06:09:39.524Z,0.11
2022-10-14T06:10:39.620Z,0.47
2022-10-14T06:11:39.597Z,0.28
2022-10-14T06:12:39.469Z,0.58
2022-10-14T06:13:39.600Z,0.35
2022-10-14T06:14:39.777Z,0.00
2022-10-14T06:15:39.573Z,0.00
2022-10-14T06:16:39.531Z,0.26
2022-10-14T06:17:39.623Z,0.50
2022-10-14T06:18:39.507Z,0.70
2022-10-14T06:19:39.452Z,0.60
2022-10-14T06:20:39.424Z,0.46
2022-10-14T06:21:39.436Z,0.41
2022-10-14T06:22:39.625Z,0.11
2022-10-14T06:23:39.539Z,0.00
2022-10-14T06:24:39.612Z,0.00
2022-10-14T06:25:39.469Z,0.00
2022-10-14T06:26:39.544Z,0.00
2022-10-14T06:27:39.546Z,0.00
2022-10-14T06:28:39.559Z,0.00
2022-10-14T06:29:39.448Z,0.00
2022-10-14T06:30:39.472Z,0.00
2022-10-14T06:31:39.473Z,0.00
2022-10-14T06:32:39.437Z,0.00
2022-10-14T06:33:39.460Z,0.00
2022-10-14T06:34:39.508Z,0.00
2022-10-14T06:35:39.445Z,0.26
2022-10-14T06:36:39.457Z,0.62
2022-10-14T06:37:39.457Z,0.47
2022-10-14T06:38:39.455Z,0.21
2022-10-14T06:39:39.529Z,0.22
2022-10-14T06:40:39.528Z,0.13
2022-10-14T06:41:39.444Z,0.01
2022-10-14T06:42:39.469Z,0.00
2022-10-14T06:43:39.468Z,0.51
2022-10-14T06:44:39.464Z,0.00
2022-10-14T06:45:39.468Z,0.05
2022-10-14T06:46:39.461Z,0.42
2022-10-14T06:47:39.464Z,0.65
2022-10-14T06:48:40.032Z,0.00
2022-10-14T06:49:39.484Z,0.77
2022-10-14T06:50:39.491Z,0.13
2022-10-14T06:51:39.521Z,0.25
2022-10-14T06:52:39.488Z,0.27
2022-10-14T06:53:39.620Z,0.15
2022-10-14T06:54:41.004Z,0.02
2022-10-14T06:55:39.514Z,0.04
2022-10-14T06:56:39.482Z,0.01
2022-10-14T06:57:39.528Z,0.07
2022-10-14T06:58:39.481Z,0.61
2022-10-14T06:59:39.504Z,0.00
2022-10-14T07:00:41.369Z,0.24
2022-10-14T07:01:39.557Z,0.88
2022-10-14T07:02:39.496Z,0.39
2022-10-14T07:03:39.544Z,0.42
2022-10-14T07:04:39.512Z,0.07
2022-10-14T07:05:39.553Z,0.00
2022-10-14T07:06:39.526Z,0.00
2022-10-14T07:07:39.492Z,0.35
2022-10-14T07:08:39.664Z,0.53
2022-10-14T07:09:39.548Z,0.00
2022-10-14T07:10:39.509Z,0.00
2022-10-14T07:11:39.519Z,0.21
2022-10-14T07:12:39.525Z,0.60
2022-10-14T07:13:39.541Z,0.48
2022-10-14T07:14:39.531Z,1.13
2022-10-14T07:15:39.528Z,0.74
2022-10-14T07:16:39.503Z,0.38
2022-10-14T07:17:39.648Z,0.30
2022-10-14T07:18:39.527Z,0.37
2022-10-14T07:19:39.503Z,0.20
2022-10-14T07:20:39.512Z,0.13
2022-10-14T07:21:39.500Z,0.88
2022-10-14T07:22:39.516Z,0.55
2022-10-14T07:23:39.507Z,0.00
2022-10-14T07:24:39.549Z,0.19
2022-10-14T07:25:39.516Z,0.00
2022-10-14T07:26:39.523Z,0.00
2022-10-14T07:27:39.523Z,0.84
2022-10-14T07:28:39.576Z,0.33
2022-10-14T07:29:39.539Z,0.39
2022-10-14T07:30:39.567Z,0.23
2022-10-14T07:31:39.535Z,0.44
2022-10-14T07:32:39.496Z,0.03
2022-10-14T07:33:43.897Z,0.00
2022-10-14T07:34:39.527Z,0.53
2022-10-14T07:35:39.770Z,0.54
2022-10-14T07:36:39.709Z,0.44
2022-10-14T07:37:39.562Z,0.13
2022-10-14T07:38:39.651Z,0.23
2022-10-14T07:39:39.547Z,0.57
2022-10-14T07:40:39.535Z,0.57
2022-10-14T07:41:39.701Z,1.44
2022-10-14T07:42:39.716Z,0.03
2022-10-14T07:43:39.728Z,0.00
2022-10-14T07:44:39.519Z,0.52
2022-10-14T07:45:39.526Z,0.18
2022-10-14T07:46:42.328Z,1.39
2022-10-14T07:47:39.566Z,1.10
2022-10-14T07:48:55.943Z,0.36
2022-10-14T07:49:39.561Z,0.00
2022-10-14T07:50:39.536Z,0.05
2022-10-14T07:51:39.552Z,0.15
2022-10-14T07:52:39.600Z,0.90
2022-10-14T07:53:41.093Z,0.01
2022-10-14T07:54:39.536Z,0.00
2022-10-14T07:55:39.558Z,0.00
2022-10-14T07:56:39.560Z,0.00
2022-10-14T07:57:39.557Z,0.00
2022-10-14T07:58:44.233Z,0.00
2022-10-14T07:59:39.537Z,0.00
2022-10-14T08:00:39.545Z,0.00
2022-10-14T08:01:39.635Z,0.01
2022-10-14T08:02:39.579Z,0.00
2022-10-14T08:03:39.546Z,0.01
2022-10-14T08:04:39.561Z,0.01
2022-10-14T08:05:39.567Z,0.49
2022-10-14T08:06:39.565Z,1.45
2022-10-14T08:07:39.556Z,1.18
2022-10-14T08:08:39.571Z,0.02
2022-10-14T08:09:39.560Z,0.00
2022-10-14T08:10:39.566Z,0.08
2022-10-14T08:11:39.989Z,0.96
2022-10-14T08:12:40.184Z,0.16
2022-10-14T08:13:43.271Z,0.13
2022-10-14T08:14:39.573Z,0.92
2022-10-14T08:15:56.700Z,0.20
2022-10-14T08:16:46.764Z,0.37
2022-10-14T08:17:39.647Z,0.02
2022-10-14T08:18:39.665Z,0.65
2022-10-14T08:19:39.733Z,0.28
2022-10-14T08:20:39.576Z,1.41
2022-10-14T08:21:51.524Z,1.02
2022-10-14T08:22:39.677Z,0.20
2022-10-14T08:23:41.317Z,0.53
2022-10-14T08:24:39.708Z,0.19
2022-10-14T08:25:39.606Z,0.82
2022-10-14T08:26:40.144Z,1.03
2022-10-14T08:28:03.664Z,0.74
2022-10-14T08:28:54.826Z,0.94
2022-10-14T08:29:49.549Z,0.37
2022-10-14T08:30:55.853Z,0.74
2022-10-14T08:31:49.009Z,0.55
2022-10-14T08:32:49.037Z,0.41
2022-10-14T08:33:48.960Z,0.72
2022-10-14T08:34:49.378Z,0.06
2022-10-14T08:35:53.815Z,0.42
2022-10-14T08:36:48.999Z,0.74
2022-10-14T08:37:49.161Z,0.43
2022-10-14T08:38:49.014Z,0.30
2022-10-14T08:39:49.095Z,0.60
2022-10-14T08:40:53.405Z,0.24
2022-10-14T08:41:49.073Z,0.18
2022-10-14T08:42:48.992Z,0.00
2022-10-14T08:43:53.289Z,0.00
2022-10-14T08:44:52.505Z,0.00
2022-10-14T08:45:49.138Z,0.19
2022-10-14T08:46:51.953Z,0.00
2022-10-14T08:47:49.896Z,0.34
2022-10-14T08:48:49.991Z,0.00
2022-10-14T08:49:49.780Z,1.00
2022-10-14T08:50:49.941Z,0.84
2022-10-14T08:51:49.759Z,1.27
2022-10-14T08:52:49.895Z,0.40
2022-10-14T08:53:49.819Z,1.01
2022-10-14T08:54:49.878Z,0.26
2022-10-14T08:55:49.884Z,0.73
2022-10-14T08:56:49.940Z,1.81
2022-10-14T08:57:51.672Z,1.43
2022-10-14T08:58:51.572Z,0.97
2022-10-14T08:59:51.551Z,0.74
2022-10-14T09:01:00.843Z,1.03
2022-10-14T09:01:51.515Z,1.05
2022-10-14T09:02:51.832Z,0.95
2022-10-14T09:03:51.833Z,0.46
2022-10-14T09:04:51.607Z,1.03
2022-10-14T09:05:51.696Z,1.02
2022-10-14T09:06:51.623Z,1.73
2022-10-14T09:08:51.622Z,2.35
2022-10-14T09:09:51.595Z,0.84
2022-10-14T09:10:51.642Z,0.70
2022-10-14T09:11:51.556Z,0.67
2022-10-14T09:12:51.627Z,0.64
2022-10-14T09:13:51.607Z,1.00
2022-10-14T09:14:51.538Z,1.06
2022-10-14T09:15:51.597Z,0.67
2022-10-14T09:16:53.472Z,0.90
2022-10-14T09:17:51.676Z,1.11
2022-10-14T09:18:54.614Z,1.04
2022-10-14T09:19:51.574Z,1.08
2022-10-14T09:20:51.563Z,1.30
2022-10-14T09:21:53.078Z,1.44
2022-10-14T09:23:51.613Z,0.55
2022-10-14T09:24:51.637Z,0.83
2022-10-14T09:25:51.606Z,0.57
2022-10-14T09:26:51.656Z,0.58
2022-10-14T09:27:51.627Z,0.40
2022-10-14T09:28:51.623Z,0.61
2022-10-14T09:29:51.554Z,0.55
2022-10-14T09:30:51.707Z,0.00
2022-10-14T09:31:51.634Z,0.23
2022-10-14T09:32:51.674Z,0.21
2022-10-14T09:33:51.664Z,0.43
2022-10-14T09:34:51.597Z,0.82
2022-10-14T09:35:51.632Z,0.98
2022-10-14T09:37:51.713Z,0.96
2022-10-14T09:38:51.619Z,0.36
2022-10-14T09:39:51.633Z,0.89
2022-10-14T09:40:51.670Z,0.65
2022-10-14T09:41:51.645Z,0.85
2022-10-14T09:42:51.741Z,1.34
2022-10-14T09:43:51.650Z,0.76
2022-10-14T09:44:51.686Z,0.76
2022-10-14T09:45:52.216Z,0.37
2022-10-14T09:46:52.206Z,0.73
2022-10-14T09:47:52.167Z,0.63
2022-10-14T09:48:52.239Z,0.03
2022-10-14T09:49:52.313Z,0.18
2022-10-14T09:50:53.737Z,1.62
2022-10-14T09:51:53.817Z,0.26
2022-10-14T09:52:54.367Z,0.07
2022-10-14T09:53:54.369Z,0.46
2022-10-14T09:54:54.369Z,0.54
2022-10-14T09:55:54.293Z,0.65
2022-10-14T09:56:54.465Z,0.27
2022-10-14T09:57:54.367Z,0.06
2022-10-14T09:58:54.353Z,0.44
2022-10-14T09:59:54.422Z,0.00
2022-10-14T10:00:54.411Z,0.84
2022-10-14T10:01:54.421Z,0.01
2022-10-14T10:02:54.390Z,0.01
2022-10-14T10:03:54.534Z,0.71
2022-10-14T10:04:54.441Z,1.03
2022-10-14T10:05:54.438Z,0.07
2022-10-14T10:06:54.388Z,1.11
2022-10-14T10:07:54.389Z,0.00
2022-10-14T10:08:54.371Z,0.74
2022-10-14T10:09:54.337Z,0.23
2022-10-14T10:10:54.445Z,0.65
2022-10-14T10:11:54.360Z,0.57
2022-10-14T10:12:54.366Z,1.75
2022-10-14T10:13:54.424Z,3.03
2022-10-14T10:14:54.473Z,1.32
2022-10-14T10:15:54.417Z,1.26
2022-10-14T10:16:54.389Z,1.47
2022-10-14T10:17:54.910Z,2.09
2022-10-14T10:18:55.031Z,2.51
2022-10-14T10:19:54.933Z,0.35
2022-10-14T10:20:55.029Z,1.01
2022-10-14T10:21:56.265Z,1.34
2022-10-14T10:22:56.357Z,1.76
2022-10-14T10:23:56.355Z,0.05
2022-10-14T10:24:56.345Z,1.33
2022-10-14T10:25:56.908Z,0.21
2022-10-14T10:26:56.908Z,1.23
2022-10-14T10:27:56.880Z,2.15
2022-10-14T10:28:56.981Z,0.73
2022-10-14T10:29:56.872Z,1.23
2022-10-14T10:30:56.965Z,0.36
2022-10-14T10:31:56.983Z,0.35
2022-10-14T10:32:56.867Z,2.08
2022-10-14T10:33:56.855Z,0.83
2022-10-14T10:34:56.963Z,1.64
2022-10-14T10:35:56.929Z,1.39
2022-10-14T10:36:56.893Z,2.01
2022-10-14T10:37:56.992Z,2.25
2022-10-14T10:38:56.953Z,0.16
2022-10-14T10:39:56.916Z,1.35
2022-10-14T10:40:56.957Z,1.47
2022-10-14T10:41:57.026Z,1.90
2022-10-14T10:42:56.927Z,1.26
2022-10-14T10:43:56.973Z,0.81
2022-10-14T10:44:56.960Z,0.02
2022-10-14T10:45:57.013Z,0.00
2022-10-14T10:46:56.969Z,0.06
2022-10-14T10:47:56.964Z,0.83
2022-10-14T10:48:56.976Z,1.32
2022-10-14T10:50:56.997Z,0.64
2022-10-14T10:51:56.915Z,0.46
2022-10-14T10:52:56.942Z,0.00
2022-10-14T10:53:57.009Z,0.00
2022-10-14T10:54:57.028Z,0.00
2022-10-14T10:55:57.129Z,0.17
2022-10-14T10:56:56.921Z,0.98
2022-10-14T10:57:57.051Z,0.40
2022-10-14T10:58:56.961Z,0.93
2022-10-14T10:59:56.996Z,0.99
2022-10-14T11:00:56.937Z,0.92
2022-10-14T11:01:56.937Z,1.52
2022-10-14T11:02:57.015Z,0.83
2022-10-14T11:03:56.911Z,0.12
2022-10-14T11:04:56.993Z,1.32
2022-10-14T11:05:57.028Z,1.09
2022-10-14T11:06:56.989Z,0.91
2022-10-14T11:07:56.989Z,0.29
2022-10-14T11:08:56.983Z,0.93
2022-10-14T11:09:57.036Z,0.46
2022-10-14T11:10:57.000Z,0.42
2022-10-14T11:11:57.012Z,1.06
2022-10-14T11:12:57.028Z,0.67
2022-10-14T11:13:57.094Z,0.02
2022-10-14T11:14:57.020Z,1.29
2022-10-14T11:15:56.942Z,1.41
2022-10-14T11:16:57.029Z,1.75
2022-10-14T11:17:56.927Z,1.35
2022-10-14T11:18:57.096Z,1.73
2022-10-14T11:19:57.024Z,1.35
2022-10-14T11:20:56.975Z,1.04
2022-10-14T11:21:59.137Z,0.14
2022-10-14T11:22:56.942Z,1.57
2022-10-14T11:23:56.963Z,1.30
2022-10-14T11:24:57.042Z,0.52
2022-10-14T11:25:57.114Z,1.58
2022-10-14T11:26:57.043Z,1.08
2022-10-14T11:27:57.071Z,0.30
2022-10-14T11:28:57.044Z,0.67
2022-10-14T11:29:57.038Z,0.95
2022-10-14T11:30:57.022Z,0.25
2022-10-14T11:31:57.058Z,0.83
2022-10-14T11:32:57.026Z,1.78
2022-10-14T11:33:57.042Z,0.66
2022-10-14T11:34:57.091Z,0.09
2022-10-14T11:35:56.983Z,0.83
2022-10-14T11:36:57.039Z,1.79
2022-10-14T11:37:57.067Z,0.66
2022-10-14T11:38:57.097Z,0.10
2022-10-14T11:39:57.016Z,0.07
2022-10-14T11:40:57.115Z,0.85
2022-10-14T11:41:57.082Z,0.05
2022-10-14T11:42:57.037Z,1.96
2022-10-14T11:43:57.179Z,1.39
2022-10-14T11:44:57.188Z,1.29
2022-10-14T11:45:57.115Z,1.09
2022-10-14T11:46:57.139Z,1.43
2022-10-14T11:47:57.129Z,1.50
2022-10-14T11:48:56.999Z,0.64
2022-10-14T11:51:13.801Z,1.45
2022-10-14T11:51:19.670Z,0.01
2022-10-14T11:54:27.893Z,0.00
2022-10-14T11:55:28.662Z,1.50
2022-10-14T11:56:27.929Z,0.59
2022-10-14T11:57:28.260Z,0.39
2022-10-14T11:58:28.599Z,0.27
2022-10-14T11:59:29.364Z,0.47
2022-10-14T12:01:28.395Z,0.28
2022-10-14T12:02:28.583Z,1.07
2022-10-14T12:03:27.800Z,0.67
2022-10-14T12:04:27.928Z,0.59
2022-10-14T12:05:27.991Z,0.76
2022-10-14T12:06:27.835Z,0.86
2022-10-14T12:07:27.904Z,0.00
2022-10-14T12:08:30.411Z,0.00
2022-10-14T12:09:27.880Z,0.00
2022-10-14T12:10:27.816Z,0.96
2022-10-14T12:11:27.690Z,0.88
2022-10-14T12:12:27.770Z,0.76
2022-10-14T12:13:27.807Z,0.75
2022-10-14T12:14:27.741Z,0.77
2022-10-14T12:15:27.780Z,0.61
2022-10-14T12:16:27.760Z,0.54
2022-10-14T12:17:27.677Z,0.26
2022-10-14T12:18:27.803Z,0.65
2022-10-14T12:19:27.795Z,0.37
2022-10-14T12:20:27.770Z,0.09
2022-10-14T12:21:27.833Z,0.00
2022-10-14T12:22:27.770Z,0.02
2022-10-14T12:23:27.798Z,0.19
2022-10-14T12:24:27.793Z,0.00
2022-10-14T12:25:27.861Z,0.00
2022-10-14T12:26:27.824Z,0.00
2022-10-14T12:27:27.839Z,0.16
2022-10-14T12:28:27.835Z,0.03
2022-10-14T12:29:27.804Z,1.34
2022-10-14T12:30:27.787Z,0.16
2022-10-14T12:31:27.719Z,0.24
2022-10-14T12:32:28.045Z,0.95
2022-10-14T12:33:27.799Z,0.89
2022-10-14T12:34:27.798Z,0.85
2022-10-14T12:35:27.753Z,0.72
2022-10-14T12:36:38.045Z,0.45
2022-10-14T12:37:31.442Z,1.28
2022-10-14T12:38:27.718Z,0.44
2022-10-14T12:39:27.727Z,1.34
2022-10-14T12:40:27.750Z,0.45
2022-10-14T12:42:35.279Z,0.04
2022-10-14T12:42:40.730Z,0.00
2022-10-14T12:43:42.863Z,1.41
2022-10-14T12:44:44.428Z,1.41
2022-10-14T12:46:59.892Z,1.60
2022-10-14T12:49:49.808Z,0.00
2022-10-14T12:50:49.874Z,0.06
2022-10-14T12:51:49.771Z,0.20
2022-10-14T12:52:49.860Z,0.89
2022-10-14T12:53:49.914Z,0.41
2022-10-14T12:54:49.808Z,0.53
2022-10-14T12:55:49.856Z,0.65
2022-10-14T12:56:49.760Z,0.03
2022-10-14T12:57:49.848Z,0.77
2022-10-14T12:58:51.344Z,1.05
2022-10-14T12:59:49.861Z,1.08
2022-10-14T13:00:49.925Z,0.45
2022-10-14T13:01:49.896Z,1.20
2022-10-14T13:02:51.076Z,1.78
2022-10-14T13:03:49.986Z,1.64
2022-10-14T13:04:49.814Z,1.36
2022-10-14T13:05:49.905Z,0.85
2022-10-14T13:06:49.776Z,0.58
2022-10-14T13:07:50.377Z,0.00
2022-10-14T13:08:49.771Z,0.39
2022-10-14T13:09:49.738Z,0.85
2022-10-14T13:10:49.798Z,0.20
2022-10-14T13:11:49.783Z,0.04
2022-10-14T13:12:49.772Z,0.66
2022-10-14T13:13:49.744Z,1.33
2022-10-14T13:14:49.828Z,1.28
2022-10-14T13:15:57.267Z,0.24
2022-10-14T13:16:58.305Z,0.59
2022-10-14T13:17:57.395Z,0.12
2022-10-14T13:18:56.985Z,0.76
2022-10-14T13:19:57.138Z,2.02
2022-10-14T13:20:56.838Z,0.69
2022-10-14T13:21:57.653Z,1.15
2022-10-14T13:22:56.862Z,0.74
2022-10-14T13:24:04.237Z,0.03
2022-10-14T13:24:58.676Z,0.00
2022-10-14T13:25:57.265Z,0.00
2022-10-14T13:26:56.914Z,0.00
2022-10-14T13:27:56.910Z,0.24
2022-10-14T13:28:56.944Z,0.65
2022-10-14T13:30:02.957Z,0.00
2022-10-14T13:31:06.093Z,1.03